createdAt,value
2017-09-27T00:00:39.146Z,11.10
2017-09-27T00:03:06.606Z,11.10
2017-09-27T00:05:34.126Z,11.00
2017-09-27T00:08:01.622Z,11.20
2017-09-27T00:10:29.102Z,11.10
2017-09-27T00:12:57.358Z,10.90
2017-09-27T00:15:24.826Z,10.80
2017-09-27T00:17:52.288Z,10.80
2017-09-27T00:20:19.753Z,10.70
2017-09-27T00:22:48.006Z,10.80
2017-09-27T00:25:16.257Z,10.80
2017-09-27T00:27:43.718Z,10.80
2017-09-27T00:30:11.200Z,10.90
2017-09-27T00:32:38.725Z,11.00
2017-09-27T00:35:06.181Z,10.90
2017-09-27T00:37:33.761Z,10.80
2017-09-27T00:40:01.225Z,10.80
2017-09-27T00:42:28.695Z,10.70
2017-09-27T00:44:56.916Z,10.50
2017-09-27T00:47:24.394Z,10.50
2017-09-27T00:49:51.857Z,10.50
2017-09-27T00:52:19.320Z,10.50
2017-09-27T00:54:46.882Z,10.40
2017-09-27T00:57:14.346Z,10.30
2017-09-27T00:59:43.301Z,10.10
2017-09-27T01:02:10.774Z,10.10
2017-09-27T01:04:38.337Z,10.00
2017-09-27T01:07:05.793Z,10.00
2017-09-27T01:09:33.258Z,10.00
2017-09-27T01:12:01.489Z,9.90
2017-09-27T01:14:28.943Z,9.90
2017-09-27T01:16:56.419Z,9.90
2017-09-27T01:19:23.887Z,9.90
2017-09-27T01:21:51.374Z,9.90
2017-09-27T01:24:18.834Z,10.00
2017-09-27T01:26:46.293Z,10.20
2017-09-27T01:29:14.535Z,10.20
2017-09-27T01:31:41.982Z,10.20
2017-09-27T01:34:09.457Z,10.20
2017-09-27T01:36:36.920Z,10.00
2017-09-27T01:39:04.478Z,10.00
2017-09-27T01:41:33.449Z,9.90
2017-09-27T01:44:00.908Z,9.90
2017-09-27T01:46:28.377Z,10.00
2017-09-27T01:48:55.833Z,9.90
2017-09-27T01:51:23.285Z,9.70
2017-09-27T01:53:50.752Z,9.70
2017-09-27T01:56:18.205Z,9.60
2017-09-27T01:58:45.665Z,9.70
2017-09-27T02:01:13.114Z,9.70
2017-09-27T02:03:40.581Z,9.80
2017-09-27T02:06:08.138Z,10.00
2017-09-27T02:08:35.601Z,9.90
2017-09-27T02:11:03.146Z,9.80
2017-09-27T02:13:30.614Z,9.70
2017-09-27T02:15:58.069Z,9.60
2017-09-27T02:18:25.529Z,9.50
2017-09-27T02:20:53.073Z,9.50
2017-09-27T02:23:20.542Z,9.40
2017-09-27T02:25:48.095Z,9.50
2017-09-27T02:28:15.563Z,9.60
2017-09-27T02:30:43.035Z,9.40
2017-09-27T02:33:11.286Z,9.30
2017-09-27T02:35:38.749Z,9.30
2017-09-27T02:38:06.985Z,9.60
2017-09-27T02:40:34.474Z,9.60
2017-09-27T02:43:01.927Z,9.50
2017-09-27T02:45:29.393Z,9.30
2017-09-27T02:47:56.850Z,9.20
2017-09-27T02:50:24.410Z,9.20
2017-09-27T02:52:51.866Z,9.20
2017-09-27T02:55:19.338Z,9.20
2017-09-27T02:57:47.574Z,9.20
2017-09-27T03:00:15.060Z,9.10
2017-09-27T03:02:42.922Z,9.20
2017-09-27T03:05:10.473Z,9.20
2017-09-27T03:07:37.943Z,9.20
2017-09-27T03:10:05.489Z,9.30
2017-09-27T03:12:32.962Z,9.30
2017-09-27T03:15:01.148Z,9.30
2017-09-27T03:17:28.657Z,9.30
2017-09-27T03:19:56.233Z,9.30
2017-09-27T03:22:23.698Z,9.30
2017-09-27T03:24:51.163Z,9.30
2017-09-27T03:27:19.393Z,9.40
2017-09-27T03:29:46.853Z,9.30
2017-09-27T03:32:14.313Z,9.60
2017-09-27T03:34:41.778Z,9.80
2017-09-27T03:37:09.246Z,9.70
2017-09-27T03:39:36.704Z,9.70
2017-09-27T03:42:04.175Z,9.60
2017-09-27T03:44:31.625Z,9.80
2017-09-27T03:46:59.087Z,9.80
2017-09-27T03:49:26.640Z,9.90
2017-09-27T03:51:54.116Z,10.10
2017-09-27T03:54:21.665Z,10.20
2017-09-27T03:56:49.145Z,10.20
2017-09-27T03:59:17.357Z,10.20
2017-09-27T04:01:44.838Z,10.20
2017-09-27T04:04:12.294Z,10.30
2017-09-27T04:06:39.749Z,10.20
2017-09-27T04:09:07.227Z,10.00
2017-09-27T04:11:34.685Z,9.80
2017-09-27T04:14:02.925Z,9.60
2017-09-27T04:16:30.390Z,9.60
2017-09-27T04:18:57.857Z,9.60
2017-09-27T04:21:25.322Z,9.50
2017-09-27T04:23:52.788Z,9.50
2017-09-27T04:26:20.245Z,9.50
2017-09-27T04:28:47.711Z,9.50
2017-09-27T04:31:15.962Z,9.80
2017-09-27T04:33:43.649Z,9.80
2017-09-27T04:36:11.573Z,9.90
2017-09-27T04:38:39.039Z,10.10
2017-09-27T04:41:06.505Z,10.00
2017-09-27T04:43:34.063Z,9.90
2017-09-27T04:46:01.517Z,9.80
2017-09-27T04:48:28.981Z,9.70
2017-09-27T04:50:56.434Z,9.60
2017-09-27T04:53:23.889Z,9.70
2017-09-27T04:55:51.337Z,9.70
2017-09-27T04:58:18.802Z,9.70
2017-09-27T05:00:46.359Z,9.70
2017-09-27T05:03:13.809Z,9.70
2017-09-27T05:05:41.369Z,9.80
2017-09-27T05:08:08.930Z,9.80
2017-09-27T05:10:36.390Z,9.90
2017-09-27T05:13:03.850Z,10.00
2017-09-27T05:15:31.322Z,10.00
2017-09-27T05:17:58.778Z,9.90
2017-09-27T05:20:27.009Z,9.80
2017-09-27T05:22:54.495Z,9.80
2017-09-27T05:25:21.958Z,10.00
2017-09-27T05:27:49.501Z,10.00
2017-09-27T05:30:16.963Z,9.90
2017-09-27T05:32:44.418Z,9.90
2017-09-27T05:35:11.892Z,9.90
2017-09-27T05:37:40.119Z,10.10
2017-09-27T05:40:07.598Z,10.10
2017-09-27T05:42:35.070Z,10.20
2017-09-27T05:45:02.540Z,10.20
2017-09-27T05:47:30.562Z,10.20
2017-09-27T05:49:58.030Z,10.20
2017-09-27T05:52:25.499Z,10.20
2017-09-27T05:54:52.957Z,10.30
2017-09-27T05:57:20.425Z,10.30
2017-09-27T05:59:47.901Z,10.30
2017-09-27T06:02:16.151Z,10.20
2017-09-27T06:04:43.619Z,10.20
2017-09-27T06:07:11.079Z,10.10
2017-09-27T06:09:38.548Z,10.10
2017-09-27T06:12:06.782Z,10.50
2017-09-27T06:14:34.245Z,10.50
2017-09-27T06:17:01.705Z,10.40
2017-09-27T06:19:29.174Z,10.30
2017-09-27T06:21:56.629Z,10.30
2017-09-27T06:24:24.121Z,10.30
2017-09-27T06:26:51.549Z,10.40
2017-09-27T06:29:19.031Z,10.40
2017-09-27T06:31:47.238Z,10.70
2017-09-27T06:34:14.720Z,10.70
2017-09-27T06:36:42.188Z,10.60
2017-09-27T06:39:09.649Z,10.60
2017-09-27T06:41:38.635Z,10.70
2017-09-27T06:44:06.103Z,10.70
2017-09-27T06:46:33.567Z,10.90
2017-09-27T06:49:01.826Z,11.50
2017-09-27T06:51:29.293Z,11.50
2017-09-27T06:53:56.759Z,11.70
2017-09-27T06:56:24.994Z,12.10
2017-09-27T06:58:52.459Z,12.10
2017-09-27T07:01:19.925Z,12.20
2017-09-27T07:03:47.385Z,12.30
2017-09-27T07:06:14.951Z,12.00
2017-09-27T07:08:42.402Z,11.90
2017-09-27T07:11:09.875Z,11.90
2017-09-27T07:13:37.650Z,12.10
2017-09-27T07:16:05.883Z,12.30
2017-09-27T07:18:33.339Z,12.20
2017-09-27T07:21:00.814Z,12.10
2017-09-27T07:23:28.384Z,11.80
2017-09-27T07:25:56.648Z,12.30
2017-09-27T07:28:24.090Z,12.30
2017-09-27T07:30:51.569Z,12.50
2017-09-27T07:33:19.030Z,12.10
2017-09-27T07:35:47.259Z,11.60
2017-09-27T07:38:14.721Z,11.50
2017-09-27T07:40:42.179Z,11.50
2017-09-27T07:43:09.643Z,11.50
2017-09-27T07:45:37.099Z,11.60
2017-09-27T07:48:04.578Z,11.70
2017-09-27T07:50:32.030Z,11.80
2017-09-27T07:53:00.277Z,11.70
2017-09-27T07:55:27.749Z,11.70
2017-09-27T07:57:55.218Z,11.90
2017-09-27T08:00:22.683Z,12.10
2017-09-27T08:02:50.232Z,12.40
2017-09-27T08:05:17.678Z,12.40
2017-09-27T08:07:45.147Z,12.50
2017-09-27T08:10:12.617Z,12.60
2017-09-27T08:12:40.077Z,12.60
2017-09-27T08:15:07.529Z,12.70
2017-09-27T08:17:34.990Z,12.70
2017-09-27T08:20:03.236Z,12.60
2017-09-27T08:22:30.714Z,12.60
2017-09-27T08:24:59.673Z,12.90
2017-09-27T08:27:27.144Z,12.80
2017-09-27T08:29:54.701Z,12.90
2017-09-27T08:32:22.170Z,13.00
2017-09-27T08:34:49.625Z,13.00
2017-09-27T08:37:17.176Z,13.10
2017-09-27T08:39:44.646Z,13.30
2017-09-27T08:42:12.112Z,13.40
2017-09-27T08:44:39.568Z,13.50
2017-09-27T08:47:07.110Z,13.70
2017-09-27T08:49:34.574Z,13.80
2017-09-27T08:52:02.039Z,14.00
2017-09-27T08:54:29.499Z,14.10
2017-09-27T08:56:57.035Z,14.30
2017-09-27T08:59:24.498Z,14.40
2017-09-27T09:01:51.956Z,14.60
2017-09-27T09:04:19.429Z,14.90
2017-09-27T09:06:47.653Z,15.10
2017-09-27T09:09:15.123Z,15.10
2017-09-27T09:11:42.590Z,15.30
2017-09-27T09:14:10.078Z,15.10
2017-09-27T09:16:38.313Z,15.00
2017-09-27T09:19:05.757Z,15.00
2017-09-27T09:21:33.232Z,15.20
2017-09-27T09:24:00.699Z,15.50
2017-09-27T09:26:28.170Z,15.70
2017-09-27T09:28:55.626Z,16.00
2017-09-27T09:31:23.093Z,16.20
2017-09-27T09:33:51.319Z,16.00
2017-09-27T09:36:18.785Z,16.00
2017-09-27T09:38:46.368Z,16.20
2017-09-27T09:41:13.834Z,16.20
2017-09-27T09:43:41.295Z,16.20
2017-09-27T09:46:09.537Z,16.30
2017-09-27T09:48:36.994Z,16.30
2017-09-27T09:51:04.474Z,16.20
2017-09-27T09:53:31.931Z,16.30
2017-09-27T09:55:59.393Z,16.30
2017-09-27T09:58:26.850Z,16.40
2017-09-27T10:00:55.090Z,16.60
2017-09-27T10:03:22.560Z,16.60
2017-09-27T10:05:50.123Z,16.80
2017-09-27T10:08:17.590Z,16.90
2017-09-27T10:10:45.046Z,16.80
2017-09-27T10:13:12.506Z,16.70
2017-09-27T10:15:39.966Z,17.00
2017-09-27T10:18:07.520Z,17.30
2017-09-27T10:20:34.978Z,17.30
2017-09-27T10:23:02.530Z,17.50
2017-09-27T10:25:29.985Z,17.80
2017-09-27T10:27:57.545Z,17.90
2017-09-27T10:30:25.003Z,17.90
2017-09-27T10:32:52.476Z,18.00
2017-09-27T10:35:20.697Z,18.40
2017-09-27T10:37:48.163Z,18.30
2017-09-27T10:40:15.622Z,18.40
2017-09-27T10:42:43.086Z,18.60
2017-09-27T10:45:10.542Z,18.60
2017-09-27T10:47:38.105Z,18.50
2017-09-27T10:50:05.564Z,18.70
2017-09-27T10:52:33.116Z,19.00
2017-09-27T10:55:00.581Z,19.20
2017-09-27T10:57:28.827Z,19.50
2017-09-27T10:59:56.290Z,19.40
2017-09-27T11:02:23.749Z,19.30
2017-09-27T11:04:51.219Z,18.80
2017-09-27T11:07:18.694Z,18.90
2017-09-27T11:09:46.150Z,19.10
2017-09-27T11:12:13.614Z,19.20
2017-09-27T11:14:41.845Z,19.20
2017-09-27T11:17:09.330Z,19.20
2017-09-27T11:19:36.789Z,19.20
2017-09-27T11:22:04.263Z,19.10
2017-09-27T11:24:32.497Z,18.90
2017-09-27T11:26:59.956Z,18.90
2017-09-27T11:29:27.418Z,19.10
2017-09-27T11:31:54.878Z,19.20
2017-09-27T11:34:22.342Z,19.40
2017-09-27T11:36:49.800Z,19.80
2017-09-27T11:39:17.267Z,19.90
2017-09-27T11:41:44.724Z,20.10
2017-09-27T11:44:12.185Z,20.20
2017-09-27T11:46:39.641Z,20.20
2017-09-27T11:49:07.103Z,20.30
2017-09-27T11:51:35.396Z,20.30
2017-09-27T11:54:03.546Z,20.30
2017-09-27T11:56:31.002Z,20.30
2017-09-27T11:58:58.464Z,20.10
2017-09-27T12:01:25.910Z,19.90
2017-09-27T12:03:53.379Z,19.90
2017-09-27T12:06:20.923Z,19.70
2017-09-27T12:08:48.478Z,19.60
2017-09-27T12:11:15.930Z,19.60
2017-09-27T12:13:43.402Z,19.60
2017-09-27T12:16:10.864Z,19.90
2017-09-27T12:18:38.340Z,20.10
2017-09-27T12:21:06.565Z,20.40
2017-09-27T12:23:34.041Z,20.40
2017-09-27T12:26:01.510Z,20.20
2017-09-27T12:28:30.470Z,20.10
2017-09-27T12:30:57.939Z,20.10
2017-09-27T12:33:25.410Z,20.20
2017-09-27T12:35:53.644Z,20.30
2017-09-27T12:38:21.106Z,20.30
2017-09-27T12:40:48.590Z,20.50
2017-09-27T12:43:16.054Z,20.60
2017-09-27T12:45:43.526Z,20.70
2017-09-27T12:48:10.973Z,20.80
2017-09-27T12:50:39.208Z,21.10
2017-09-27T12:53:06.684Z,21.10
2017-09-27T12:55:34.143Z,20.80
2017-09-27T12:58:01.703Z,20.60
2017-09-27T13:00:29.271Z,20.40
2017-09-27T13:02:56.742Z,20.50
2017-09-27T13:05:24.210Z,20.60
2017-09-27T13:07:52.432Z,20.90
2017-09-27T13:10:19.915Z,20.80
2017-09-27T13:12:48.137Z,20.90
2017-09-27T13:15:15.597Z,20.90
2017-09-27T13:17:43.046Z,21.00
2017-09-27T13:20:10.510Z,21.20
2017-09-27T13:22:38.014Z,21.40
2017-09-27T13:25:05.473Z,21.40
2017-09-27T13:27:33.034Z,21.10
2017-09-27T13:30:00.475Z,21.10
2017-09-27T13:32:27.938Z,21.00
2017-09-27T13:34:55.401Z,21.20
2017-09-27T13:37:22.858Z,21.10
2017-09-27T13:39:50.319Z,21.00
2017-09-27T13:42:18.545Z,21.10
2017-09-27T13:44:45.994Z,21.10
2017-09-27T13:47:13.456Z,20.90
2017-09-27T13:49:40.909Z,21.00
2017-09-27T13:52:08.381Z,21.00
2017-09-27T13:54:35.838Z,21.00
2017-09-27T13:57:03.303Z,21.20
2017-09-27T13:59:30.746Z,21.30
2017-09-27T14:01:58.219Z,21.10
2017-09-27T14:04:25.669Z,21.10
2017-09-27T14:06:53.130Z,21.20
2017-09-27T14:09:20.586Z,21.10
2017-09-27T14:11:48.066Z,21.00
2017-09-27T14:14:15.539Z,21.00
2017-09-27T14:16:43.758Z,21.10
2017-09-27T14:19:11.225Z,21.10
2017-09-27T14:21:38.714Z,21.00
2017-09-27T14:24:06.165Z,21.00
2017-09-27T14:26:34.437Z,21.00
2017-09-27T14:29:01.897Z,21.00
2017-09-27T14:31:29.346Z,21.10
2017-09-27T14:33:56.797Z,21.10
2017-09-27T14:36:24.275Z,21.20
2017-09-27T14:38:51.721Z,21.20
2017-09-27T14:41:19.177Z,21.20
2017-09-27T14:43:46.632Z,21.20
2017-09-27T14:46:14.082Z,21.20
2017-09-27T14:48:41.647Z,21.20
2017-09-27T14:51:09.093Z,21.20
2017-09-27T14:53:36.554Z,21.30
2017-09-27T14:56:04.014Z,21.20
2017-09-27T14:58:31.470Z,21.30
2017-09-27T15:00:59.700Z,21.10
2017-09-27T15:03:27.154Z,21.00
2017-09-27T15:05:54.597Z,21.10
2017-09-27T15:08:22.825Z,21.10
2017-09-27T15:10:50.278Z,21.10
2017-09-27T15:13:17.748Z,21.00
2017-09-27T15:15:45.199Z,20.90
2017-09-27T15:18:12.758Z,21.00
2017-09-27T15:20:40.233Z,20.90
2017-09-27T15:23:07.683Z,21.00
2017-09-27T15:25:35.133Z,21.00
2017-09-27T15:28:02.581Z,20.90
2017-09-27T15:30:30.038Z,21.00
2017-09-27T15:32:57.481Z,21.00
2017-09-27T15:35:24.951Z,21.00
2017-09-27T15:37:52.406Z,21.00
2017-09-27T15:40:19.866Z,21.00
2017-09-27T15:42:47.328Z,21.20
2017-09-27T15:45:14.782Z,21.00
2017-09-27T15:47:42.334Z,21.00
2017-09-27T15:50:09.798Z,20.90
2017-09-27T15:52:37.252Z,20.90
2017-09-27T15:55:04.705Z,20.70
2017-09-27T15:57:32.155Z,20.60
2017-09-27T15:59:59.624Z,20.50
2017-09-27T16:02:27.192Z,20.40
2017-09-27T16:04:54.751Z,20.30
2017-09-27T16:07:22.202Z,20.20
2017-09-27T16:09:49.661Z,20.00
2017-09-27T16:12:17.125Z,20.00
2017-09-27T16:14:45.350Z,19.80
2017-09-27T16:17:12.793Z,19.80
2017-09-27T16:19:40.258Z,19.70
2017-09-27T16:22:07.711Z,19.60
2017-09-27T16:24:35.170Z,19.50
2017-09-27T16:27:02.669Z,19.40
2017-09-27T16:29:30.138Z,19.30
2017-09-27T16:31:57.682Z,19.30
2017-09-27T16:34:25.142Z,19.20
2017-09-27T16:36:52.609Z,19.00
2017-09-27T16:39:20.061Z,19.00
2017-09-27T16:41:47.521Z,18.90
2017-09-27T16:44:15.068Z,18.80
2017-09-27T16:46:42.533Z,18.80
2017-09-27T16:49:09.991Z,18.60
2017-09-27T16:51:37.449Z,18.50
2017-09-27T16:54:04.910Z,18.40
2017-09-27T16:56:33.877Z,18.10
2017-09-27T16:59:01.346Z,18.10
2017-09-27T17:01:28.810Z,18.00
2017-09-27T17:03:56.259Z,17.90
2017-09-27T17:06:23.812Z,17.90
2017-09-27T17:08:51.271Z,17.80
2017-09-27T17:11:18.725Z,17.80
2017-09-27T17:13:46.193Z,17.70
2017-09-27T17:16:13.658Z,17.60
2017-09-27T17:18:41.198Z,17.40
2017-09-27T17:21:08.662Z,17.40
2017-09-27T17:23:36.130Z,17.40
2017-09-27T17:26:03.598Z,17.30
2017-09-27T17:28:31.831Z,17.30
2017-09-27T17:30:59.293Z,17.20
2017-09-27T17:33:27.625Z,17.20
2017-09-27T17:35:55.087Z,17.20
2017-09-27T17:38:22.566Z,17.10
2017-09-27T17:40:50.026Z,17.10
2017-09-27T17:43:17.481Z,17.00
2017-09-27T17:45:44.942Z,17.00
2017-09-27T17:48:12.400Z,17.00
2017-09-27T17:50:39.858Z,16.90
2017-09-27T17:53:07.330Z,16.90
2017-09-27T17:55:34.793Z,16.80
2017-09-27T17:58:02.359Z,16.70
2017-09-27T18:00:29.826Z,16.60
2017-09-27T18:02:58.049Z,16.40
2017-09-27T18:05:31.333Z,16.40
2017-09-27T18:08:04.514Z,16.30
2017-09-27T18:10:37.514Z,16.10
2017-09-27T18:13:21.813Z,16.00
2017-09-27T18:15:55.905Z,15.80
2017-09-27T18:18:29.177Z,15.70
2017-09-27T18:20:56.648Z,15.50
2017-09-27T18:23:24.110Z,15.40
2017-09-27T18:25:51.578Z,15.30
2017-09-27T18:28:20.062Z,15.20
2017-09-27T18:30:47.531Z,15.10
2017-09-27T18:33:14.982Z,15.00
2017-09-27T18:35:42.445Z,14.90
2017-09-27T18:38:10.676Z,14.80
2017-09-27T18:40:38.148Z,14.70
2017-09-27T18:43:05.606Z,14.70
2017-09-27T18:45:33.165Z,14.60
2017-09-27T18:48:00.633Z,14.50
2017-09-27T18:50:28.093Z,14.50
2017-09-27T18:52:55.554Z,14.40
2017-09-27T18:55:23.098Z,14.40
2017-09-27T18:57:50.567Z,14.40
2017-09-27T19:00:18.037Z,14.40
2017-09-27T19:02:45.486Z,14.40
2017-09-27T19:05:13.029Z,14.30
2017-09-27T19:07:40.482Z,14.20
2017-09-27T19:10:07.948Z,14.20
2017-09-27T19:12:35.405Z,14.10
2017-09-27T19:15:02.962Z,14.20
2017-09-27T19:17:30.425Z,14.20
2017-09-27T19:19:57.910Z,14.00
2017-09-27T19:22:26.129Z,13.90
2017-09-27T19:24:53.582Z,13.90
2017-09-27T19:27:21.062Z,14.10
2017-09-27T19:29:48.634Z,14.10
2017-09-27T19:32:16.099Z,14.10
2017-09-27T19:34:44.314Z,14.00
2017-09-27T19:37:11.778Z,14.00
2017-09-27T19:39:39.249Z,14.00
2017-09-27T19:42:06.714Z,14.00
2017-09-27T19:44:34.185Z,13.80
2017-09-27T19:47:01.657Z,13.70
2017-09-27T19:49:29.881Z,13.80
2017-09-27T19:51:57.355Z,13.80
2017-09-27T19:54:24.805Z,13.90
2017-09-27T19:56:52.285Z,13.90
2017-09-27T19:59:22.206Z,13.90
2017-09-27T20:01:49.677Z,13.90
2017-09-27T20:04:17.893Z,13.80
2017-09-27T20:06:45.357Z,13.80
2017-09-27T20:09:12.834Z,13.90
2017-09-27T20:11:40.328Z,13.80
2017-09-27T20:14:08.566Z,13.70
2017-09-27T20:16:36.025Z,13.70
2017-09-27T20:19:03.580Z,13.60
2017-09-27T20:21:31.037Z,13.60
2017-09-27T20:23:58.509Z,13.60
2017-09-27T20:26:25.953Z,13.60
2017-09-27T20:28:53.419Z,13.80
2017-09-27T20:31:20.882Z,13.90
2017-09-27T20:33:48.356Z,13.70
2017-09-27T20:36:16.579Z,13.60
2017-09-27T20:38:44.162Z,13.60
2017-09-27T20:41:11.622Z,13.60
2017-09-27T20:43:39.088Z,13.60
2017-09-27T20:46:06.543Z,13.60
2017-09-27T20:48:34.003Z,13.50
2017-09-27T20:51:01.459Z,13.40
2017-09-27T20:53:29.694Z,13.30
2017-09-27T20:55:57.164Z,13.30
2017-09-27T20:58:24.618Z,13.30
2017-09-27T21:00:52.085Z,13.40
2017-09-27T21:03:19.537Z,13.40
2017-09-27T21:05:47.006Z,13.40
2017-09-27T21:08:15.240Z,13.30
2017-09-27T21:10:42.709Z,13.30
2017-09-27T21:13:10.178Z,13.30
2017-09-27T21:15:37.654Z,13.10
2017-09-27T21:18:05.106Z,13.00
2017-09-27T21:20:32.569Z,13.00
2017-09-27T21:23:00.028Z,13.00
2017-09-27T21:25:27.489Z,13.00
2017-09-27T21:27:54.946Z,12.90
2017-09-27T21:30:23.186Z,12.90
2017-09-27T21:32:50.637Z,12.90
2017-09-27T21:35:18.094Z,13.00
2017-09-27T21:37:45.550Z,13.20
2017-09-27T21:40:13.019Z,13.10
2017-09-27T21:42:40.488Z,13.10
2017-09-27T21:45:07.950Z,13.10
2017-09-27T21:47:35.500Z,13.10
2017-09-27T21:50:02.967Z,13.10
2017-09-27T21:52:30.422Z,13.10
2017-09-27T21:54:57.891Z,13.00
2017-09-27T21:57:25.337Z,13.00
2017-09-27T22:02:34.850Z,12.90
2017-09-27T22:05:02.321Z,12.90
2017-09-27T22:07:29.789Z,12.90
2017-09-27T22:09:57.241Z,12.90
2017-09-27T22:14:58.607Z,12.90
2017-09-27T22:17:26.062Z,12.90
2017-09-27T22:19:53.527Z,13.00
2017-09-27T22:22:20.998Z,12.90
2017-09-27T22:24:48.449Z,12.90
2017-09-27T22:27:15.913Z,12.80
2017-09-27T22:29:43.374Z,12.80
2017-09-27T22:32:11.613Z,12.70
2017-09-27T22:34:39.986Z,12.70
2017-09-27T22:37:07.444Z,12.70
2017-09-27T22:39:34.900Z,12.70
2017-09-27T22:42:02.374Z,12.70
2017-09-27T22:44:29.834Z,12.70
2017-09-27T22:46:57.295Z,12.70
2017-09-27T22:49:24.749Z,12.70
2017-09-27T22:51:52.222Z,12.70
2017-09-27T22:54:19.767Z,12.70
2017-09-27T22:56:47.255Z,12.70
2017-09-27T22:59:15.478Z,12.70
2017-09-27T23:01:42.958Z,12.60
2017-09-27T23:04:10.434Z,12.70
2017-09-27T23:06:38.672Z,12.70
2017-09-27T23:09:06.137Z,12.60
2017-09-27T23:11:33.606Z,12.70
2017-09-27T23:14:01.065Z,12.70
2017-09-27T23:16:28.527Z,12.70
2017-09-27T23:18:55.992Z,12.70
2017-09-27T23:21:24.222Z,12.70
2017-09-27T23:23:51.691Z,12.70
2017-09-27T23:26:19.147Z,12.80
2017-09-27T23:28:46.709Z,12.80
2017-09-27T23:31:14.178Z,12.80
2017-09-27T23:33:41.651Z,12.70
2017-09-27T23:36:09.873Z,12.50
2017-09-27T23:38:37.354Z,12.50
2017-09-27T23:41:04.809Z,12.50
2017-09-27T23:43:32.278Z,12.60
2017-09-27T23:45:59.746Z,12.70
2017-09-27T23:48:28.001Z,12.60
2017-09-27T23:50:55.483Z,12.60
2017-09-27T23:53:23.731Z,12.50
2017-09-27T23:55:51.198Z,12.50
2017-09-27T23:58:18.663Z,12.40
